sensor_id;sensor_type;location;lat;lon;timestamp;temperature;humidity
33741;DHT22;20065;48.380;10.892;2023-05-10T00:02:35;14.60;99.90
33741;DHT22;20065;48.380;10.892;2023-05-10T00:05:21;14.80;99.90
33741;DHT22;20065;48.380;10.892;2023-05-10T00:08:07;14.90;99.90
33741;DHT22;20065;48.380;10.892;2023-05-10T00:10:53;14.90;99.90
33741;DHT22;20065;48.380;10.892;2023-05-10T00:13:40;15.00;99.90
33741;DHT22;20065;48.380;10.892;2023-05-10T00:16:26;15.10;99.90
33741;DHT22;20065;48.380;10.892;2023-05-10T00:19:12;14.90;99.90
33741;DHT22;20065;48.380;10.892;2023-05-10T00:21:58;14.90;99.90
33741;DHT22;20065;48.380;10.892;2023-05-10T00:24:44;14.80;99.90
33741;DHT22;20065;48.380;10.892;2023-05-10T00:27:30;14.80;99.90
33741;DHT22;20065;48.380;10.892;2023-05-10T00:30:16;14.70;99.90
33741;DHT22;20065;48.380;10.892;2023-05-10T00:33:02;14.60;99.90
33741;DHT22;20065;48.380;10.892;2023-05-10T00:35:49;14.60;99.90
33741;DHT22;20065;48.380;10.892;2023-05-10T00:38:35;14.50;99.90
33741;DHT22;20065;48.380;10.892;2023-05-10T00:41:22;14.40;99.90
33741;DHT22;20065;48.380;10.892;2023-05-10T00:44:08;14.40;99.90
33741;DHT22;20065;48.380;10.892;2023-05-10T00:46:54;14.40;99.90
33741;DHT22;20065;48.380;10.892;2023-05-10T00:49:41;14.40;99.90
33741;DHT22;20065;48.380;10.892;2023-05-10T00:52:28;14.30;99.90
33741;DHT22;20065;48.380;10.892;2023-05-10T00:55:15;14.40;99.90
33741;DHT22;20065;48.380;10.892;2023-05-10T00:58:01;14.40;99.90
33741;DHT22;20065;48.380;10.892;2023-05-10T01:00:48;14.20;99.90
33741;DHT22;20065;48.380;10.892;2023-05-10T01:03:36;14.20;99.90
33741;DHT22;20065;48.380;10.892;2023-05-10T01:06:22;14.20;99.90
33741;DHT22;20065;48.380;10.892;2023-05-10T01:09:08;14.80;99.90
33741;DHT22;20065;48.380;10.892;2023-05-10T01:11:56;14.20;99.90
33741;DHT22;20065;48.380;10.892;2023-05-10T01:14:42;14.10;99.90
33741;DHT22;20065;48.380;10.892;2023-05-10T01:17:29;14.10;99.90
33741;DHT22;20065;48.380;10.892;2023-05-10T01:20:16;14.20;99.90
33741;DHT22;20065;48.380;10.892;2023-05-10T01:23:17;14.10;99.90
33741;DHT22;20065;48.380;10.892;2023-05-10T01:29:52;14.00;99.90
33741;DHT22;20065;48.380;10.892;2023-05-10T01:35:43;14.00;99.90
33741;DHT22;20065;48.380;10.892;2023-05-10T01:44:37;13.80;99.90
33741;DHT22;20065;48.380;10.892;2023-05-10T01:47:37;13.90;99.90
33741;DHT22;20065;48.380;10.892;2023-05-10T01:50:27;13.80;99.90
33741;DHT22;20065;48.380;10.892;2023-05-10T01:53:18;13.80;99.90
33741;DHT22;20065;48.380;10.892;2023-05-10T01:56:05;13.90;99.90
33741;DHT22;20065;48.380;10.892;2023-05-10T01:58:54;13.80;99.90
33741;DHT22;20065;48.380;10.892;2023-05-10T02:01:41;13.70;99.90
33741;DHT22;20065;48.380;10.892;2023-05-10T02:04:29;13.80;99.90
33741;DHT22;20065;48.380;10.892;2023-05-10T02:07:15;13.80;99.90
33741;DHT22;20065;48.380;10.892;2023-05-10T02:10:10;13.80;99.90
33741;DHT22;20065;48.380;10.892;2023-05-10T02:12:58;13.80;99.90
33741;DHT22;20065;48.380;10.892;2023-05-10T02:15:49;13.80;99.90
33741;DHT22;20065;48.380;10.892;2023-05-10T02:18:36;13.70;99.90
33741;DHT22;20065;48.380;10.892;2023-05-10T02:21:23;13.70;99.90
33741;DHT22;20065;48.380;10.892;2023-05-10T02:24:11;13.70;99.90
33741;DHT22;20065;48.380;10.892;2023-05-10T02:26:57;13.80;99.90
33741;DHT22;20065;48.380;10.892;2023-05-10T02:29:44;13.70;99.90
33741;DHT22;20065;48.380;10.892;2023-05-10T02:32:31;13.70;99.90
33741;DHT22;20065;48.380;10.892;2023-05-10T02:35:17;13.60;99.90
33741;DHT22;20065;48.380;10.892;2023-05-10T02:38:05;13.60;99.90
33741;DHT22;20065;48.380;10.892;2023-05-10T02:40:52;13.50;99.90
33741;DHT22;20065;48.380;10.892;2023-05-10T02:43:40;13.40;99.90
33741;DHT22;20065;48.380;10.892;2023-05-10T02:46:27;13.40;99.90
33741;DHT22;20065;48.380;10.892;2023-05-10T02:49:15;13.40;99.90
33741;DHT22;20065;48.380;10.892;2023-05-10T02:52:05;13.40;99.90
33741;DHT22;20065;48.380;10.892;2023-05-10T02:54:55;13.40;99.90
33741;DHT22;20065;48.380;10.892;2023-05-10T02:57:52;13.40;99.90
33741;DHT22;20065;48.380;10.892;2023-05-10T03:00:40;13.40;99.90
33741;DHT22;20065;48.380;10.892;2023-05-10T03:03:30;13.40;99.90
33741;DHT22;20065;48.380;10.892;2023-05-10T03:06:16;13.40;99.90
33741;DHT22;20065;48.380;10.892;2023-05-10T03:09:03;13.40;99.90
33741;DHT22;20065;48.380;10.892;2023-05-10T03:12:04;13.40;99.90
33741;DHT22;20065;48.380;10.892;2023-05-10T03:17:56;13.40;99.90
33741;DHT22;20065;48.380;10.892;2023-05-10T03:20:49;13.40;99.90
33741;DHT22;20065;48.380;10.892;2023-05-10T03:23:43;13.40;99.90
33741;DHT22;20065;48.380;10.892;2023-05-10T03:26:30;13.40;99.90
33741;DHT22;20065;48.380;10.892;2023-05-10T03:29:26;13.50;99.90
33741;DHT22;20065;48.380;10.892;2023-05-10T03:32:13;13.40;99.90
33741;DHT22;20065;48.380;10.892;2023-05-10T03:34:59;13.40;99.90
33741;DHT22;20065;48.380;10.892;2023-05-10T03:37:45;13.50;99.90
33741;DHT22;20065;48.380;10.892;2023-05-10T03:40:32;13.40;99.90
33741;DHT22;20065;48.380;10.892;2023-05-10T03:43:19;13.30;99.90
33741;DHT22;20065;48.380;10.892;2023-05-10T03:46:05;13.40;99.90
33741;DHT22;20065;48.380;10.892;2023-05-10T03:48:51;13.30;99.90
33741;DHT22;20065;48.380;10.892;2023-05-10T03:51:37;13.40;99.90
33741;DHT22;20065;48.380;10.892;2023-05-10T03:54:24;13.50;99.90
33741;DHT22;20065;48.380;10.892;2023-05-10T03:57:10;13.70;99.90
33741;DHT22;20065;48.380;10.892;2023-05-10T03:59:56;13.70;99.90
33741;DHT22;20065;48.380;10.892;2023-05-10T04:02:43;13.60;99.90
33741;DHT22;20065;48.380;10.892;2023-05-10T04:05:34;13.70;99.90
33741;DHT22;20065;48.380;10.892;2023-05-10T04:08:20;13.60;99.90
33741;DHT22;20065;48.380;10.892;2023-05-10T04:11:10;13.70;99.90
33741;DHT22;20065;48.380;10.892;2023-05-10T04:13:56;13.70;99.90
33741;DHT22;20065;48.380;10.892;2023-05-10T04:16:42;13.70;99.90
33741;DHT22;20065;48.380;10.892;2023-05-10T04:19:30;13.70;99.90
33741;DHT22;20065;48.380;10.892;2023-05-10T04:22:16;13.70;99.90
33741;DHT22;20065;48.380;10.892;2023-05-10T04:25:03;13.80;99.90
33741;DHT22;20065;48.380;10.892;2023-05-10T04:27:50;13.90;99.90
33741;DHT22;20065;48.380;10.892;2023-05-10T04:30:37;14.10;99.90
33741;DHT22;20065;48.380;10.892;2023-05-10T04:33:23;14.10;99.90
33741;DHT22;20065;48.380;10.892;2023-05-10T04:36:09;14.10;99.90
33741;DHT22;20065;48.380;10.892;2023-05-10T04:38:55;14.20;99.90
33741;DHT22;20065;48.380;10.892;2023-05-10T04:41:41;14.10;99.90
33741;DHT22;20065;48.380;10.892;2023-05-10T04:44:28;14.00;99.90
33741;DHT22;20065;48.380;10.892;2023-05-10T04:47:14;14.10;99.90
33741;DHT22;20065;48.380;10.892;2023-05-10T04:50:02;14.20;99.90
33741;DHT22;20065;48.380;10.892;2023-05-10T04:52:48;14.10;99.90
33741;DHT22;20065;48.380;10.892;2023-05-10T04:55:34;14.20;99.90
33741;DHT22;20065;48.380;10.892;2023-05-10T04:58:21;14.20;99.90
33741;DHT22;20065;48.380;10.892;2023-05-10T05:01:08;14.10;99.90
33741;DHT22;20065;48.380;10.892;2023-05-10T05:03:55;14.20;99.90
33741;DHT22;20065;48.380;10.892;2023-05-10T05:06:41;14.30;99.90
33741;DHT22;20065;48.380;10.892;2023-05-10T05:09:27;14.30;99.90
33741;DHT22;20065;48.380;10.892;2023-05-10T05:12:13;14.30;99.90
33741;DHT22;20065;48.380;10.892;2023-05-10T05:15:00;14.30;99.90
33741;DHT22;20065;48.380;10.892;2023-05-10T05:17:46;14.30;99.90
33741;DHT22;20065;48.380;10.892;2023-05-10T05:20:35;14.20;99.90
33741;DHT22;20065;48.380;10.892;2023-05-10T05:23:21;14.10;99.90
33741;DHT22;20065;48.380;10.892;2023-05-10T05:26:10;14.20;99.90
33741;DHT22;20065;48.380;10.892;2023-05-10T05:28:57;14.20;99.90
33741;DHT22;20065;48.380;10.892;2023-05-10T05:31:43;14.10;99.90
33741;DHT22;20065;48.380;10.892;2023-05-10T05:34:29;14.30;99.90
33741;DHT22;20065;48.380;10.892;2023-05-10T05:37:16;14.30;99.90
33741;DHT22;20065;48.380;10.892;2023-05-10T05:40:03;14.20;99.90
33741;DHT22;20065;48.380;10.892;2023-05-10T05:42:49;14.20;99.90
33741;DHT22;20065;48.380;10.892;2023-05-10T05:45:35;14.10;99.90
33741;DHT22;20065;48.380;10.892;2023-05-10T05:48:21;14.10;99.90
33741;DHT22;20065;48.380;10.892;2023-05-10T05:51:08;14.00;99.90
33741;DHT22;20065;48.380;10.892;2023-05-10T05:53:54;14.20;99.90
33741;DHT22;20065;48.380;10.892;2023-05-10T05:56:40;14.00;99.90
33741;DHT22;20065;48.380;10.892;2023-05-10T05:59:26;13.80;99.90
33741;DHT22;20065;48.380;10.892;2023-05-10T06:02:13;13.60;99.90
33741;DHT22;20065;48.380;10.892;2023-05-10T06:04:59;13.40;99.90
33741;DHT22;20065;48.380;10.892;2023-05-10T06:07:45;13.30;99.90
33741;DHT22;20065;48.380;10.892;2023-05-10T06:10:31;13.30;99.90
33741;DHT22;20065;48.380;10.892;2023-05-10T06:13:18;13.40;99.90
33741;DHT22;20065;48.380;10.892;2023-05-10T06:16:04;13.40;99.90
33741;DHT22;20065;48.380;10.892;2023-05-10T06:18:50;13.40;99.90
33741;DHT22;20065;48.380;10.892;2023-05-10T06:21:36;13.50;99.90
33741;DHT22;20065;48.380;10.892;2023-05-10T06:24:23;13.50;99.90
33741;DHT22;20065;48.380;10.892;2023-05-10T06:27:09;13.30;99.90
33741;DHT22;20065;48.380;10.892;2023-05-10T06:29:55;13.30;99.90
33741;DHT22;20065;48.380;10.892;2023-05-10T06:32:41;13.30;99.90
33741;DHT22;20065;48.380;10.892;2023-05-10T06:35:29;13.30;99.90
33741;DHT22;20065;48.380;10.892;2023-05-10T06:38:15;13.40;99.90
33741;DHT22;20065;48.380;10.892;2023-05-10T06:41:01;13.40;99.90
33741;DHT22;20065;48.380;10.892;2023-05-10T06:43:48;13.40;99.90
33741;DHT22;20065;48.380;10.892;2023-05-10T06:46:34;13.50;99.90
33741;DHT22;20065;48.380;10.892;2023-05-10T06:49:21;13.40;99.90
33741;DHT22;20065;48.380;10.892;2023-05-10T06:52:07;13.40;99.90
33741;DHT22;20065;48.380;10.892;2023-05-10T06:54:53;13.40;99.90
33741;DHT22;20065;48.380;10.892;2023-05-10T06:57:39;13.50;99.90
33741;DHT22;20065;48.380;10.892;2023-05-10T07:00:25;13.50;99.90
33741;DHT22;20065;48.380;10.892;2023-05-10T07:03:12;13.50;99.90
33741;DHT22;20065;48.380;10.892;2023-05-10T07:06:02;13.60;99.90
33741;DHT22;20065;48.380;10.892;2023-05-10T07:08:49;13.60;99.90
33741;DHT22;20065;48.380;10.892;2023-05-10T07:11:35;13.70;99.90
33741;DHT22;20065;48.380;10.892;2023-05-10T07:14:23;13.80;99.90
33741;DHT22;20065;48.380;10.892;2023-05-10T07:17:09;13.80;99.90
33741;DHT22;20065;48.380;10.892;2023-05-10T07:19:55;13.90;99.90
33741;DHT22;20065;48.380;10.892;2023-05-10T07:22:41;14.00;99.90
33741;DHT22;20065;48.380;10.892;2023-05-10T07:25:28;14.10;99.90
33741;DHT22;20065;48.380;10.892;2023-05-10T07:28:15;14.10;99.90
33741;DHT22;20065;48.380;10.892;2023-05-10T07:31:01;14.10;99.90
33741;DHT22;20065;48.380;10.892;2023-05-10T07:33:47;14.10;99.90
33741;DHT22;20065;48.380;10.892;2023-05-10T07:36:33;14.10;99.90
33741;DHT22;20065;48.380;10.892;2023-05-10T07:39:20;14.10;99.90
33741;DHT22;20065;48.380;10.892;2023-05-10T07:42:09;14.20;99.90
33741;DHT22;20065;48.380;10.892;2023-05-10T07:44:55;14.30;99.90
33741;DHT22;20065;48.380;10.892;2023-05-10T07:47:41;14.30;99.90
33741;DHT22;20065;48.380;10.892;2023-05-10T07:50:27;14.20;99.90
33741;DHT22;20065;48.380;10.892;2023-05-10T07:53:13;14.30;99.90
33741;DHT22;20065;48.380;10.892;2023-05-10T07:56:20;14.40;99.90
33741;DHT22;20065;48.380;10.892;2023-05-10T07:59:07;14.40;99.90
33741;DHT22;20065;48.380;10.892;2023-05-10T08:01:53;14.60;99.90
33741;DHT22;20065;48.380;10.892;2023-05-10T08:04:39;14.70;99.90
33741;DHT22;20065;48.380;10.892;2023-05-10T08:07:25;14.80;99.90
33741;DHT22;20065;48.380;10.892;2023-05-10T08:10:11;14.90;99.90
33741;DHT22;20065;48.380;10.892;2023-05-10T08:12:57;14.70;99.90
33741;DHT22;20065;48.380;10.892;2023-05-10T08:15:44;14.60;99.90
33741;DHT22;20065;48.380;10.892;2023-05-10T08:18:30;14.60;99.90
33741;DHT22;20065;48.380;10.892;2023-05-10T08:21:16;14.80;99.90
33741;DHT22;20065;48.380;10.892;2023-05-10T08:24:02;14.90;99.90
33741;DHT22;20065;48.380;10.892;2023-05-10T08:26:49;14.90;99.90
33741;DHT22;20065;48.380;10.892;2023-05-10T08:29:35;14.80;99.90
33741;DHT22;20065;48.380;10.892;2023-05-10T08:32:21;14.80;99.90
33741;DHT22;20065;48.380;10.892;2023-05-10T08:35:07;14.90;99.90
33741;DHT22;20065;48.380;10.892;2023-05-10T08:37:53;14.70;99.90
33741;DHT22;20065;48.380;10.892;2023-05-10T08:40:42;14.60;99.90
33741;DHT22;20065;48.380;10.892;2023-05-10T08:43:29;14.60;99.90
33741;DHT22;20065;48.380;10.892;2023-05-10T08:46:18;14.70;99.90
33741;DHT22;20065;48.380;10.892;2023-05-10T08:49:06;14.50;99.90
33741;DHT22;20065;48.380;10.892;2023-05-10T08:51:55;14.60;99.90
33741;DHT22;20065;48.380;10.892;2023-05-10T08:54:42;14.60;99.90
33741;DHT22;20065;48.380;10.892;2023-05-10T08:57:28;14.80;99.90
33741;DHT22;20065;48.380;10.892;2023-05-10T09:00:15;14.50;99.90
33741;DHT22;20065;48.380;10.892;2023-05-10T09:03:04;14.60;99.90
33741;DHT22;20065;48.380;10.892;2023-05-10T09:05:50;14.70;99.90
33741;DHT22;20065;48.380;10.892;2023-05-10T09:08:36;14.70;99.90
33741;DHT22;20065;48.380;10.892;2023-05-10T09:11:23;14.70;99.90
33741;DHT22;20065;48.380;10.892;2023-05-10T09:14:10;14.90;99.90
33741;DHT22;20065;48.380;10.892;2023-05-10T09:16:58;15.00;99.90
33741;DHT22;20065;48.380;10.892;2023-05-10T09:19:45;14.90;99.90
33741;DHT22;20065;48.380;10.892;2023-05-10T09:22:31;14.90;99.90
33741;DHT22;20065;48.380;10.892;2023-05-10T09:25:17;14.90;99.90
33741;DHT22;20065;48.380;10.892;2023-05-10T09:28:06;15.00;99.90
33741;DHT22;20065;48.380;10.892;2023-05-10T09:30:54;15.20;99.90
33741;DHT22;20065;48.380;10.892;2023-05-10T09:33:45;15.40;99.90
33741;DHT22;20065;48.380;10.892;2023-05-10T09:36:34;15.30;99.90
33741;DHT22;20065;48.380;10.892;2023-05-10T09:39:20;15.00;99.90
33741;DHT22;20065;48.380;10.892;2023-05-10T09:42:18;14.80;99.90
33741;DHT22;20065;48.380;10.892;2023-05-10T09:45:05;14.90;99.90
33741;DHT22;20065;48.380;10.892;2023-05-10T09:47:51;15.10;99.90
33741;DHT22;20065;48.380;10.892;2023-05-10T09:50:37;15.20;99.90
33741;DHT22;20065;48.380;10.892;2023-05-10T09:53:24;15.10;99.90
33741;DHT22;20065;48.380;10.892;2023-05-10T09:56:13;14.90;99.90
33741;DHT22;20065;48.380;10.892;2023-05-10T09:59:18;15.00;99.90
33741;DHT22;20065;48.380;10.892;2023-05-10T10:02:04;15.10;99.90
33741;DHT22;20065;48.380;10.892;2023-05-10T10:04:50;15.20;99.90
33741;DHT22;20065;48.380;10.892;2023-05-10T10:07:37;15.30;99.90
33741;DHT22;20065;48.380;10.892;2023-05-10T10:10:28;15.40;99.90
33741;DHT22;20065;48.380;10.892;2023-05-10T10:13:14;15.20;99.90
33741;DHT22;20065;48.380;10.892;2023-05-10T10:16:02;15.00;99.90
33741;DHT22;20065;48.380;10.892;2023-05-10T10:18:48;14.80;99.90
33741;DHT22;20065;48.380;10.892;2023-05-10T10:21:35;14.40;99.90
33741;DHT22;20065;48.380;10.892;2023-05-10T10:24:21;14.20;99.90
33741;DHT22;20065;48.380;10.892;2023-05-10T10:36:47;14.90;99.90
33741;DHT22;20065;48.380;10.892;2023-05-10T10:39:33;15.00;99.90
33741;DHT22;20065;48.380;10.892;2023-05-10T10:42:46;15.10;99.90
33741;DHT22;20065;48.380;10.892;2023-05-10T10:45:33;15.10;99.90
33741;DHT22;20065;48.380;10.892;2023-05-10T10:48:23;14.90;99.90
33741;DHT22;20065;48.380;10.892;2023-05-10T10:51:09;15.20;99.90
33741;DHT22;20065;48.380;10.892;2023-05-10T10:54:09;15.50;99.90
33741;DHT22;20065;48.380;10.892;2023-05-10T10:57:11;15.70;99.90
33741;DHT22;20065;48.380;10.892;2023-05-10T11:03:16;15.90;99.90
33741;DHT22;20065;48.380;10.892;2023-05-10T11:06:08;15.80;99.90
33741;DHT22;20065;48.380;10.892;2023-05-10T11:08:54;15.40;99.90
33741;DHT22;20065;48.380;10.892;2023-05-10T11:11:59;16.00;99.90
33741;DHT22;20065;48.380;10.892;2023-05-10T11:14:50;15.80;99.90
33741;DHT22;20065;48.380;10.892;2023-05-10T11:17:40;15.80;99.90
33741;DHT22;20065;48.380;10.892;2023-05-10T11:20:28;15.80;99.90
33741;DHT22;20065;48.380;10.892;2023-05-10T11:23:30;15.90;99.90
33741;DHT22;20065;48.380;10.892;2023-05-10T11:26:17;15.90;99.90
33741;DHT22;20065;48.380;10.892;2023-05-10T11:29:03;15.70;99.90
33741;DHT22;20065;48.380;10.892;2023-05-10T11:31:51;15.50;99.90
33741;DHT22;20065;48.380;10.892;2023-05-10T11:34:38;15.40;99.90
33741;DHT22;20065;48.380;10.892;2023-05-10T11:37:28;15.30;99.90
33741;DHT22;20065;48.380;10.892;2023-05-10T11:40:18;15.30;99.90
33741;DHT22;20065;48.380;10.892;2023-05-10T11:43:05;15.50;99.90
33741;DHT22;20065;48.380;10.892;2023-05-10T11:45:51;15.40;99.90
33741;DHT22;20065;48.380;10.892;2023-05-10T11:48:41;15.40;99.90
33741;DHT22;20065;48.380;10.892;2023-05-10T11:51:27;15.30;99.90
33741;DHT22;20065;48.380;10.892;2023-05-10T11:54:13;15.40;99.90
33741;DHT22;20065;48.380;10.892;2023-05-10T11:57:00;15.60;99.90
33741;DHT22;20065;48.380;10.892;2023-05-10T11:59:47;15.70;99.90
33741;DHT22;20065;48.380;10.892;2023-05-10T12:02:33;15.80;99.90
33741;DHT22;20065;48.380;10.892;2023-05-10T12:05:19;15.90;99.90
33741;DHT22;20065;48.380;10.892;2023-05-10T12:08:19;15.90;99.90
33741;DHT22;20065;48.380;10.892;2023-05-10T12:11:08;16.00;99.90
33741;DHT22;20065;48.380;10.892;2023-05-10T12:13:56;15.90;99.90
33741;DHT22;20065;48.380;10.892;2023-05-10T12:16:43;15.80;99.90
33741;DHT22;20065;48.380;10.892;2023-05-10T12:19:37;15.80;99.90
33741;DHT22;20065;48.380;10.892;2023-05-10T12:22:24;15.80;99.90
33741;DHT22;20065;48.380;10.892;2023-05-10T12:25:10;15.60;99.90
33741;DHT22;20065;48.380;10.892;2023-05-10T12:27:58;15.70;99.90
33741;DHT22;20065;48.380;10.892;2023-05-10T12:30:46;15.60;99.90
33741;DHT22;20065;48.380;10.892;2023-05-10T12:33:36;15.70;99.90
33741;DHT22;20065;48.380;10.892;2023-05-10T12:36:24;15.70;99.90
33741;DHT22;20065;48.380;10.892;2023-05-10T12:39:13;15.70;99.90
33741;DHT22;20065;48.380;10.892;2023-05-10T12:42:00;15.70;99.90
33741;DHT22;20065;48.380;10.892;2023-05-10T12:44:46;15.80;99.90
33741;DHT22;20065;48.380;10.892;2023-05-10T12:47:33;15.50;99.90
33741;DHT22;20065;48.380;10.892;2023-05-10T12:50:19;15.40;99.90
33741;DHT22;20065;48.380;10.892;2023-05-10T12:53:06;15.20;99.90
33741;DHT22;20065;48.380;10.892;2023-05-10T12:55:52;15.20;99.90
33741;DHT22;20065;48.380;10.892;2023-05-10T12:58:39;15.40;99.90
33741;DHT22;20065;48.380;10.892;2023-05-10T13:01:25;15.50;99.90
33741;DHT22;20065;48.380;10.892;2023-05-10T13:04:11;15.60;99.90
33741;DHT22;20065;48.380;10.892;2023-05-10T13:06:57;15.80;99.90
33741;DHT22;20065;48.380;10.892;2023-05-10T13:09:44;15.70;99.90
33741;DHT22;20065;48.380;10.892;2023-05-10T13:12:31;15.70;99.90
33741;DHT22;20065;48.380;10.892;2023-05-10T13:15:17;15.40;99.90
33741;DHT22;20065;48.380;10.892;2023-05-10T13:18:03;15.50;99.90
33741;DHT22;20065;48.380;10.892;2023-05-10T13:20:49;15.20;99.90
33741;DHT22;20065;48.380;10.892;2023-05-10T13:23:36;15.50;99.90
33741;DHT22;20065;48.380;10.892;2023-05-10T13:26:22;15.50;99.90
33741;DHT22;20065;48.380;10.892;2023-05-10T13:29:14;15.60;99.90
33741;DHT22;20065;48.380;10.892;2023-05-10T13:32:03;15.50;99.90
33741;DHT22;20065;48.380;10.892;2023-05-10T13:35:03;15.50;99.90
33741;DHT22;20065;48.380;10.892;2023-05-10T13:37:49;15.60;99.90
33741;DHT22;20065;48.380;10.892;2023-05-10T13:40:35;15.50;99.90
33741;DHT22;20065;48.380;10.892;2023-05-10T13:43:22;15.50;99.90
33741;DHT22;20065;48.380;10.892;2023-05-10T13:46:08;15.90;99.90
33741;DHT22;20065;48.380;10.892;2023-05-10T13:48:54;15.80;99.90
33741;DHT22;20065;48.380;10.892;2023-05-10T13:51:41;15.80;99.90
33741;DHT22;20065;48.380;10.892;2023-05-10T13:54:28;15.60;99.90
33741;DHT22;20065;48.380;10.892;2023-05-10T13:57:15;15.60;99.90
33741;DHT22;20065;48.380;10.892;2023-05-10T14:00:03;15.50;99.90
33741;DHT22;20065;48.380;10.892;2023-05-10T14:02:54;14.60;99.90
33741;DHT22;20065;48.380;10.892;2023-05-10T14:05:40;14.80;99.90
33741;DHT22;20065;48.380;10.892;2023-05-10T14:08:27;14.40;99.90
33741;DHT22;20065;48.380;10.892;2023-05-10T14:11:13;14.20;99.90
33741;DHT22;20065;48.380;10.892;2023-05-10T14:14:00;13.90;99.90
33741;DHT22;20065;48.380;10.892;2023-05-10T14:16:50;13.60;99.90
33741;DHT22;20065;48.380;10.892;2023-05-10T14:19:47;13.30;99.90
33741;DHT22;20065;48.380;10.892;2023-05-10T14:22:35;12.50;99.90
33741;DHT22;20065;48.380;10.892;2023-05-10T14:25:46;12.40;99.90
33741;DHT22;20065;48.380;10.892;2023-05-10T14:28:32;12.20;99.90
33741;DHT22;20065;48.380;10.892;2023-05-10T14:31:18;12.20;99.90
33741;DHT22;20065;48.380;10.892;2023-05-10T14:34:06;12.30;99.90
33741;DHT22;20065;48.380;10.892;2023-05-10T14:36:52;12.40;99.90
33741;DHT22;20065;48.380;10.892;2023-05-10T14:39:38;12.30;99.90
33741;DHT22;20065;48.380;10.892;2023-05-10T14:42:25;12.40;99.90
33741;DHT22;20065;48.380;10.892;2023-05-10T14:45:30;12.50;99.90
33741;DHT22;20065;48.380;10.892;2023-05-10T14:48:20;12.70;99.90
33741;DHT22;20065;48.380;10.892;2023-05-10T14:51:07;12.60;99.90
33741;DHT22;20065;48.380;10.892;2023-05-10T14:54:01;12.60;99.90
33741;DHT22;20065;48.380;10.892;2023-05-10T14:56:48;12.70;99.90
33741;DHT22;20065;48.380;10.892;2023-05-10T14:59:35;12.70;99.90
33741;DHT22;20065;48.380;10.892;2023-05-10T15:02:41;12.70;99.90
33741;DHT22;20065;48.380;10.892;2023-05-10T15:05:37;12.90;99.90
33741;DHT22;20065;48.380;10.892;2023-05-10T15:08:33;12.90;99.90
33741;DHT22;20065;48.380;10.892;2023-05-10T15:11:54;13.10;99.90
33741;DHT22;20065;48.380;10.892;2023-05-10T15:15:12;13.20;99.90
33741;DHT22;20065;48.380;10.892;2023-05-10T15:17:58;11.80;99.90
33741;DHT22;20065;48.380;10.892;2023-05-10T15:20:44;13.10;99.90
33741;DHT22;20065;48.380;10.892;2023-05-10T15:23:30;13.00;99.90
33741;DHT22;20065;48.380;10.892;2023-05-10T15:26:17;13.10;99.90
33741;DHT22;20065;48.380;10.892;2023-05-10T15:29:04;13.00;99.90
33741;DHT22;20065;48.380;10.892;2023-05-10T15:31:50;13.00;99.90
33741;DHT22;20065;48.380;10.892;2023-05-10T15:34:47;12.70;99.90
33741;DHT22;20065;48.380;10.892;2023-05-10T15:37:35;12.60;99.90
33741;DHT22;20065;48.380;10.892;2023-05-10T15:40:21;12.30;99.90
33741;DHT22;20065;48.380;10.892;2023-05-10T15:43:08;12.20;99.90
33741;DHT22;20065;48.380;10.892;2023-05-10T15:45:55;12.20;99.90
33741;DHT22;20065;48.380;10.892;2023-05-10T15:48:45;12.30;99.90
33741;DHT22;20065;48.380;10.892;2023-05-10T15:51:31;12.40;99.90
33741;DHT22;20065;48.380;10.892;2023-05-10T15:54:18;12.40;99.90
33741;DHT22;20065;48.380;10.892;2023-05-10T15:57:04;12.30;99.90
33741;DHT22;20065;48.380;10.892;2023-05-10T15:59:50;12.30;99.90
33741;DHT22;20065;48.380;10.892;2023-05-10T16:02:41;12.40;99.90
33741;DHT22;20065;48.380;10.892;2023-05-10T16:05:28;12.40;99.90
33741;DHT22;20065;48.380;10.892;2023-05-10T16:08:17;12.50;99.90
33741;DHT22;20065;48.380;10.892;2023-05-10T16:11:04;12.50;99.90
33741;DHT22;20065;48.380;10.892;2023-05-10T16:13:52;12.40;99.90
33741;DHT22;20065;48.380;10.892;2023-05-10T16:16:38;12.30;99.90
33741;DHT22;20065;48.380;10.892;2023-05-10T16:19:25;12.30;99.90
33741;DHT22;20065;48.380;10.892;2023-05-10T16:22:12;12.30;99.90
33741;DHT22;20065;48.380;10.892;2023-05-10T16:24:59;12.20;99.90
33741;DHT22;20065;48.380;10.892;2023-05-10T16:27:45;12.30;99.90
33741;DHT22;20065;48.380;10.892;2023-05-10T16:30:32;12.20;99.90
33741;DHT22;20065;48.380;10.892;2023-05-10T16:33:18;12.10;99.90
33741;DHT22;20065;48.380;10.892;2023-05-10T16:36:06;12.10;99.90
33741;DHT22;20065;48.380;10.892;2023-05-10T16:38:52;12.10;99.90
33741;DHT22;20065;48.380;10.892;2023-05-10T16:41:38;12.00;99.90
33741;DHT22;20065;48.380;10.892;2023-05-10T16:44:25;12.00;99.90
33741;DHT22;20065;48.380;10.892;2023-05-10T16:47:12;11.90;99.90
33741;DHT22;20065;48.380;10.892;2023-05-10T16:49:59;11.90;99.90
33741;DHT22;20065;48.380;10.892;2023-05-10T16:52:48;11.80;99.90
33741;DHT22;20065;48.380;10.892;2023-05-10T16:55:34;12.30;99.90
33741;DHT22;20065;48.380;10.892;2023-05-10T16:58:22;11.70;99.90
33741;DHT22;20065;48.380;10.892;2023-05-10T17:01:15;11.70;99.90
33741;DHT22;20065;48.380;10.892;2023-05-10T17:04:10;11.80;99.90
33741;DHT22;20065;48.380;10.892;2023-05-10T17:07:00;11.70;99.90
33741;DHT22;20065;48.380;10.892;2023-05-10T17:10:07;11.70;99.90
33741;DHT22;20065;48.380;10.892;2023-05-10T17:12:56;11.60;99.90
33741;DHT22;20065;48.380;10.892;2023-05-10T17:15:45;11.70;99.90
33741;DHT22;20065;48.380;10.892;2023-05-10T17:18:40;11.70;99.90
33741;DHT22;20065;48.380;10.892;2023-05-10T17:21:33;11.60;99.90
33741;DHT22;20065;48.380;10.892;2023-05-10T17:24:20;11.50;99.90
33741;DHT22;20065;48.380;10.892;2023-05-10T17:27:16;11.50;99.90
33741;DHT22;20065;48.380;10.892;2023-05-10T17:30:07;11.40;99.90
33741;DHT22;20065;48.380;10.892;2023-05-10T17:36:38;11.60;99.90
33741;DHT22;20065;48.380;10.892;2023-05-10T17:39:44;11.70;99.90
33741;DHT22;20065;48.380;10.892;2023-05-10T17:42:33;11.70;99.90
33741;DHT22;20065;48.380;10.892;2023-05-10T17:45:20;11.60;99.90
33741;DHT22;20065;48.380;10.892;2023-05-10T17:48:06;11.60;99.90
33741;DHT22;20065;48.380;10.892;2023-05-10T17:50:52;11.70;99.90
33741;DHT22;20065;48.380;10.892;2023-05-10T17:53:39;11.70;99.90
33741;DHT22;20065;48.380;10.892;2023-05-10T17:56:25;11.70;99.90
33741;DHT22;20065;48.380;10.892;2023-05-10T17:59:12;11.70;99.90